sensor_id;sensor_type;location;lat;lon;timestamp;P1;durP1;ratioP1;P2;durP2;ratioP2
21621;SDS011;10973;46.706;12.340;2022-10-16T00:01:41;11.47;;;9.83;;
21621;SDS011;10973;46.706;12.340;2022-10-16T00:04:09;11.07;;;9.93;;
21621;SDS011;10973;46.706;12.340;2022-10-16T00:06:36;10.43;;;9.33;;
21621;SDS011;10973;46.706;12.340;2022-10-16T00:09:05;12.20;;;10.20;;
21621;SDS011;10973;46.706;12.340;2022-10-16T00:11:34;11.07;;;9.83;;
21621;SDS011;10973;46.706;12.340;2022-10-16T00:14:05;11.63;;;9.83;;
21621;SDS011;10973;46.706;12.340;2022-10-16T00:16:39;12.23;;;10.00;;
21621;SDS011;10973;46.706;12.340;2022-10-16T00:19:08;11.10;;;9.83;;
21621;SDS011;10973;46.706;12.340;2022-10-16T00:21:37;11.07;;;9.93;;
21621;SDS011;10973;46.706;12.340;2022-10-16T00:24:06;11.97;;;10.17;;
21621;SDS011;10973;46.706;12.340;2022-10-16T00:26:35;12.50;;;10.40;;
21621;SDS011;10973;46.706;12.340;2022-10-16T00:29:04;11.57;;;9.70;;
21621;SDS011;10973;46.706;12.340;2022-10-16T00:31:33;12.63;;;10.90;;
21621;SDS011;10973;46.706;12.340;2022-10-16T00:34:01;12.87;;;10.73;;
21621;SDS011;10973;46.706;12.340;2022-10-16T00:36:28;12.90;;;9.87;;
21621;SDS011;10973;46.706;12.340;2022-10-16T00:38:56;12.47;;;10.37;;
21621;SDS011;10973;46.706;12.340;2022-10-16T00:41:29;12.00;;;10.63;;
21621;SDS011;10973;46.706;12.340;2022-10-16T00:43:58;12.57;;;10.67;;
21621;SDS011;10973;46.706;12.340;2022-10-16T00:46:29;13.10;;;10.73;;
21621;SDS011;10973;46.706;12.340;2022-10-16T00:49:03;11.97;;;9.97;;
21621;SDS011;10973;46.706;12.340;2022-10-16T00:51:41;12.67;;;10.73;;
21621;SDS011;10973;46.706;12.340;2022-10-16T00:54:25;13.57;;;11.13;;
21621;SDS011;10973;46.706;12.340;2022-10-16T00:56:58;14.10;;;10.47;;
21621;SDS011;10973;46.706;12.340;2022-10-16T00:59:31;11.37;;;10.17;;
21621;SDS011;10973;46.706;12.340;2022-10-16T01:02:02;12.53;;;10.57;;
21621;SDS011;10973;46.706;12.340;2022-10-16T01:04:34;13.13;;;10.77;;
21621;SDS011;10973;46.706;12.340;2022-10-16T01:12:41;12.97;;;11.10;;
21621;SDS011;10973;46.706;12.340;2022-10-16T01:15:30;12.70;;;11.23;;
21621;SDS011;10973;46.706;12.340;2022-10-16T01:18:21;12.03;;;10.83;;
21621;SDS011;10973;46.706;12.340;2022-10-16T01:21:04;12.33;;;11.03;;
21621;SDS011;10973;46.706;12.340;2022-10-16T01:23:47;16.07;;;12.10;;
21621;SDS011;10973;46.706;12.340;2022-10-16T01:32:22;16.03;;;10.83;;
21621;SDS011;10973;46.706;12.340;2022-10-16T01:37:59;14.10;;;11.20;;
21621;SDS011;10973;46.706;12.340;2022-10-16T01:40:50;13.83;;;10.77;;
21621;SDS011;10973;46.706;12.340;2022-10-16T01:43:40;13.23;;;10.57;;
21621;SDS011;10973;46.706;12.340;2022-10-16T01:46:37;11.93;;;10.53;;
21621;SDS011;10973;46.706;12.340;2022-10-16T01:49:11;14.33;;;11.80;;
21621;SDS011;10973;46.706;12.340;2022-10-16T01:51:40;12.67;;;11.37;;
21621;SDS011;10973;46.706;12.340;2022-10-16T01:54:12;13.30;;;11.10;;
21621;SDS011;10973;46.706;12.340;2022-10-16T01:56:44;15.37;;;11.07;;
21621;SDS011;10973;46.706;12.340;2022-10-16T01:59:16;12.83;;;11.40;;
21621;SDS011;10973;46.706;12.340;2022-10-16T02:01:50;12.10;;;10.73;;
21621;SDS011;10973;46.706;12.340;2022-10-16T02:06:58;13.30;;;11.30;;
21621;SDS011;10973;46.706;12.340;2022-10-16T02:09:26;12.13;;;10.67;;
21621;SDS011;10973;46.706;12.340;2022-10-16T02:11:53;20.23;;;17.83;;
21621;SDS011;10973;46.706;12.340;2022-10-16T02:14:25;33.83;;;29.60;;
21621;SDS011;10973;46.706;12.340;2022-10-16T02:16:53;20.83;;;17.27;;
21621;SDS011;10973;46.706;12.340;2022-10-16T02:19:20;26.80;;;23.93;;
21621;SDS011;10973;46.706;12.340;2022-10-16T02:21:56;12.73;;;11.43;;
21621;SDS011;10973;46.706;12.340;2022-10-16T02:24:38;15.23;;;13.63;;
21621;SDS011;10973;46.706;12.340;2022-10-16T02:30:27;15.07;;;12.60;;
21621;SDS011;10973;46.706;12.340;2022-10-16T02:33:07;16.77;;;13.07;;
21621;SDS011;10973;46.706;12.340;2022-10-16T02:35:38;15.07;;;12.77;;
21621;SDS011;10973;46.706;12.340;2022-10-16T02:38:07;13.77;;;12.07;;
21621;SDS011;10973;46.706;12.340;2022-10-16T02:40:37;15.07;;;12.43;;
21621;SDS011;10973;46.706;12.340;2022-10-16T02:43:05;15.77;;;12.40;;
21621;SDS011;10973;46.706;12.340;2022-10-16T02:45:33;15.23;;;11.90;;
21621;SDS011;10973;46.706;12.340;2022-10-16T02:48:00;16.77;;;12.13;;
21621;SDS011;10973;46.706;12.340;2022-10-16T02:50:27;20.20;;;14.03;;
21621;SDS011;10973;46.706;12.340;2022-10-16T02:52:54;15.40;;;12.87;;
21621;SDS011;10973;46.706;12.340;2022-10-16T02:55:22;15.73;;;13.23;;
21621;SDS011;10973;46.706;12.340;2022-10-16T02:57:49;13.73;;;11.60;;
21621;SDS011;10973;46.706;12.340;2022-10-16T03:00:17;15.40;;;12.00;;
21621;SDS011;10973;46.706;12.340;2022-10-16T03:02:45;14.30;;;12.23;;
21621;SDS011;10973;46.706;12.340;2022-10-16T03:05:12;12.90;;;11.50;;
21621;SDS011;10973;46.706;12.340;2022-10-16T03:07:41;14.00;;;12.50;;
21621;SDS011;10973;46.706;12.340;2022-10-16T03:10:08;13.30;;;11.27;;
21621;SDS011;10973;46.706;12.340;2022-10-16T03:12:35;13.63;;;11.53;;
21621;SDS011;10973;46.706;12.340;2022-10-16T03:15:03;13.93;;;11.83;;
21621;SDS011;10973;46.706;12.340;2022-10-16T03:17:31;14.60;;;11.50;;
21621;SDS011;10973;46.706;12.340;2022-10-16T03:19:59;13.10;;;11.30;;
21621;SDS011;10973;46.706;12.340;2022-10-16T03:22:26;15.43;;;12.37;;
21621;SDS011;10973;46.706;12.340;2022-10-16T03:24:53;14.83;;;12.47;;
21621;SDS011;10973;46.706;12.340;2022-10-16T03:27:21;13.23;;;11.90;;
21621;SDS011;10973;46.706;12.340;2022-10-16T03:29:48;19.13;;;14.23;;
21621;SDS011;10973;46.706;12.340;2022-10-16T03:32:15;21.70;;;16.73;;
21621;SDS011;10973;46.706;12.340;2022-10-16T03:34:43;16.30;;;14.33;;
21621;SDS011;10973;46.706;12.340;2022-10-16T03:37:10;17.53;;;13.93;;
21621;SDS011;10973;46.706;12.340;2022-10-16T03:39:37;16.60;;;13.93;;
21621;SDS011;10973;46.706;12.340;2022-10-16T03:42:04;15.23;;;13.03;;
21621;SDS011;10973;46.706;12.340;2022-10-16T03:44:32;14.70;;;13.13;;
21621;SDS011;10973;46.706;12.340;2022-10-16T03:46:59;18.63;;;13.43;;
21621;SDS011;10973;46.706;12.340;2022-10-16T03:49:26;20.10;;;15.80;;
21621;SDS011;10973;46.706;12.340;2022-10-16T03:51:53;21.60;;;17.50;;
21621;SDS011;10973;46.706;12.340;2022-10-16T03:54:20;23.67;;;17.43;;
21621;SDS011;10973;46.706;12.340;2022-10-16T03:56:48;20.03;;;16.33;;
21621;SDS011;10973;46.706;12.340;2022-10-16T03:59:15;22.20;;;17.23;;
21621;SDS011;10973;46.706;12.340;2022-10-16T04:01:42;20.70;;;17.20;;
21621;SDS011;10973;46.706;12.340;2022-10-16T04:04:10;21.97;;;17.93;;
21621;SDS011;10973;46.706;12.340;2022-10-16T04:06:37;20.40;;;17.27;;
21621;SDS011;10973;46.706;12.340;2022-10-16T04:09:04;20.53;;;18.17;;
21621;SDS011;10973;46.706;12.340;2022-10-16T04:11:31;24.43;;;16.93;;
21621;SDS011;10973;46.706;12.340;2022-10-16T04:13:58;20.77;;;18.27;;
21621;SDS011;10973;46.706;12.340;2022-10-16T04:16:26;20.87;;;17.73;;
21621;SDS011;10973;46.706;12.340;2022-10-16T04:18:53;20.87;;;16.27;;
21621;SDS011;10973;46.706;12.340;2022-10-16T04:21:20;19.13;;;16.17;;
21621;SDS011;10973;46.706;12.340;2022-10-16T04:23:47;18.07;;;15.67;;
21621;SDS011;10973;46.706;12.340;2022-10-16T04:26:14;15.53;;;13.47;;
21621;SDS011;10973;46.706;12.340;2022-10-16T04:28:42;16.63;;;14.10;;
21621;SDS011;10973;46.706;12.340;2022-10-16T04:31:10;17.10;;;14.23;;
21621;SDS011;10973;46.706;12.340;2022-10-16T04:33:37;17.50;;;14.33;;
21621;SDS011;10973;46.706;12.340;2022-10-16T04:36:04;15.60;;;13.57;;
21621;SDS011;10973;46.706;12.340;2022-10-16T04:38:32;15.87;;;14.13;;
21621;SDS011;10973;46.706;12.340;2022-10-16T04:40:59;14.87;;;13.23;;
21621;SDS011;10973;46.706;12.340;2022-10-16T04:43:27;21.80;;;13.17;;
21621;SDS011;10973;46.706;12.340;2022-10-16T04:45:54;15.53;;;13.17;;
21621;SDS011;10973;46.706;12.340;2022-10-16T04:48:21;18.07;;;15.23;;
21621;SDS011;10973;46.706;12.340;2022-10-16T04:50:49;15.63;;;13.93;;
21621;SDS011;10973;46.706;12.340;2022-10-16T04:53:20;16.90;;;14.10;;
21621;SDS011;10973;46.706;12.340;2022-10-16T04:55:47;15.07;;;13.53;;
21621;SDS011;10973;46.706;12.340;2022-10-16T04:58:16;18.07;;;14.87;;
21621;SDS011;10973;46.706;12.340;2022-10-16T05:00:44;19.13;;;14.93;;
21621;SDS011;10973;46.706;12.340;2022-10-16T05:03:12;19.03;;;15.87;;
21621;SDS011;10973;46.706;12.340;2022-10-16T05:05:43;46.50;;;33.03;;
21621;SDS011;10973;46.706;12.340;2022-10-16T05:08:12;45.10;;;32.77;;
21621;SDS011;10973;46.706;12.340;2022-10-16T05:10:42;36.37;;;29.63;;
21621;SDS011;10973;46.706;12.340;2022-10-16T05:13:10;27.70;;;21.70;;
21621;SDS011;10973;46.706;12.340;2022-10-16T05:15:38;29.93;;;23.90;;
21621;SDS011;10973;46.706;12.340;2022-10-16T05:18:05;29.00;;;23.87;;
21621;SDS011;10973;46.706;12.340;2022-10-16T05:20:33;23.47;;;20.13;;
21621;SDS011;10973;46.706;12.340;2022-10-16T05:23:00;23.17;;;19.03;;
21621;SDS011;10973;46.706;12.340;2022-10-16T05:25:27;22.10;;;18.20;;
21621;SDS011;10973;46.706;12.340;2022-10-16T05:27:55;19.43;;;17.30;;
21621;SDS011;10973;46.706;12.340;2022-10-16T05:30:22;19.23;;;16.93;;
21621;SDS011;10973;46.706;12.340;2022-10-16T05:32:50;19.40;;;16.13;;
21621;SDS011;10973;46.706;12.340;2022-10-16T05:35:18;18.60;;;16.50;;
21621;SDS011;10973;46.706;12.340;2022-10-16T05:37:46;20.07;;;15.57;;
21621;SDS011;10973;46.706;12.340;2022-10-16T05:40:14;19.03;;;14.87;;
21621;SDS011;10973;46.706;12.340;2022-10-16T05:42:42;20.33;;;16.17;;
21621;SDS011;10973;46.706;12.340;2022-10-16T05:45:09;19.00;;;16.17;;
21621;SDS011;10973;46.706;12.340;2022-10-16T05:47:37;21.23;;;16.53;;
21621;SDS011;10973;46.706;12.340;2022-10-16T05:50:05;20.60;;;17.10;;
21621;SDS011;10973;46.706;12.340;2022-10-16T05:52:33;17.73;;;15.30;;
21621;SDS011;10973;46.706;12.340;2022-10-16T05:55:00;20.60;;;16.60;;
21621;SDS011;10973;46.706;12.340;2022-10-16T05:57:28;25.63;;;20.53;;
21621;SDS011;10973;46.706;12.340;2022-10-16T05:59:55;23.90;;;17.00;;
21621;SDS011;10973;46.706;12.340;2022-10-16T06:02:23;21.33;;;16.60;;
21621;SDS011;10973;46.706;12.340;2022-10-16T06:04:53;20.73;;;16.20;;
21621;SDS011;10973;46.706;12.340;2022-10-16T06:07:20;19.10;;;16.07;;
21621;SDS011;10973;46.706;12.340;2022-10-16T06:09:50;23.60;;;18.17;;
21621;SDS011;10973;46.706;12.340;2022-10-16T06:12:19;20.83;;;17.27;;
21621;SDS011;10973;46.706;12.340;2022-10-16T06:14:46;22.90;;;17.80;;
21621;SDS011;10973;46.706;12.340;2022-10-16T06:17:14;23.73;;;18.60;;
21621;SDS011;10973;46.706;12.340;2022-10-16T06:19:41;23.60;;;17.50;;
21621;SDS011;10973;46.706;12.340;2022-10-16T06:22:08;19.30;;;16.83;;
21621;SDS011;10973;46.706;12.340;2022-10-16T06:24:36;19.13;;;17.13;;
21621;SDS011;10973;46.706;12.340;2022-10-16T06:27:03;21.83;;;18.17;;
21621;SDS011;10973;46.706;12.340;2022-10-16T06:29:31;24.00;;;20.77;;
21621;SDS011;10973;46.706;12.340;2022-10-16T06:31:58;23.67;;;19.97;;
21621;SDS011;10973;46.706;12.340;2022-10-16T06:34:26;18.60;;;15.30;;
21621;SDS011;10973;46.706;12.340;2022-10-16T06:36:53;19.23;;;15.50;;
21621;SDS011;10973;46.706;12.340;2022-10-16T06:39:20;20.37;;;16.57;;
21621;SDS011;10973;46.706;12.340;2022-10-16T06:41:47;21.73;;;17.57;;
21621;SDS011;10973;46.706;12.340;2022-10-16T06:44:14;21.90;;;18.17;;
21621;SDS011;10973;46.706;12.340;2022-10-16T06:46:42;22.27;;;19.40;;
21621;SDS011;10973;46.706;12.340;2022-10-16T06:49:09;18.00;;;15.60;;
21621;SDS011;10973;46.706;12.340;2022-10-16T06:51:36;18.00;;;14.80;;
21621;SDS011;10973;46.706;12.340;2022-10-16T06:54:08;20.07;;;16.47;;
21621;SDS011;10973;46.706;12.340;2022-10-16T06:56:35;20.83;;;17.70;;
21621;SDS011;10973;46.706;12.340;2022-10-16T06:59:03;21.63;;;17.43;;
21621;SDS011;10973;46.706;12.340;2022-10-16T07:01:31;24.17;;;20.87;;
21621;SDS011;10973;46.706;12.340;2022-10-16T07:03:59;29.13;;;20.63;;
21621;SDS011;10973;46.706;12.340;2022-10-16T07:06:30;29.37;;;20.70;;
21621;SDS011;10973;46.706;12.340;2022-10-16T07:09:00;20.33;;;17.93;;
21621;SDS011;10973;46.706;12.340;2022-10-16T07:11:33;17.57;;;15.53;;
21621;SDS011;10973;46.706;12.340;2022-10-16T07:14:03;18.77;;;15.37;;
21621;SDS011;10973;46.706;12.340;2022-10-16T07:16:32;17.53;;;14.07;;
21621;SDS011;10973;46.706;12.340;2022-10-16T07:19:00;16.37;;;13.30;;
21621;SDS011;10973;46.706;12.340;2022-10-16T07:21:30;16.33;;;13.40;;
21621;SDS011;10973;46.706;12.340;2022-10-16T07:23:59;14.67;;;11.93;;
21621;SDS011;10973;46.706;12.340;2022-10-16T07:26:28;14.47;;;12.27;;
21621;SDS011;10973;46.706;12.340;2022-10-16T07:28:59;14.67;;;12.37;;
21621;SDS011;10973;46.706;12.340;2022-10-16T07:31:27;15.97;;;12.40;;
21621;SDS011;10973;46.706;12.340;2022-10-16T07:33:54;13.20;;;11.57;;
21621;SDS011;10973;46.706;12.340;2022-10-16T07:36:24;13.77;;;11.53;;
21621;SDS011;10973;46.706;12.340;2022-10-16T07:38:52;15.37;;;12.13;;
21621;SDS011;10973;46.706;12.340;2022-10-16T07:41:25;12.73;;;11.20;;
21621;SDS011;10973;46.706;12.340;2022-10-16T07:43:53;14.90;;;11.40;;
21621;SDS011;10973;46.706;12.340;2022-10-16T07:46:23;14.60;;;12.17;;
21621;SDS011;10973;46.706;12.340;2022-10-16T07:48:50;12.90;;;11.10;;
21621;SDS011;10973;46.706;12.340;2022-10-16T07:51:19;17.07;;;13.67;;
21621;SDS011;10973;46.706;12.340;2022-10-16T07:53:49;16.17;;;13.23;;
21621;SDS011;10973;46.706;12.340;2022-10-16T07:56:17;15.73;;;13.30;;
21621;SDS011;10973;46.706;12.340;2022-10-16T07:58:47;14.30;;;11.70;;
21621;SDS011;10973;46.706;12.340;2022-10-16T08:01:15;15.40;;;11.80;;
21621;SDS011;10973;46.706;12.340;2022-10-16T08:03:48;13.73;;;11.80;;
21621;SDS011;10973;46.706;12.340;2022-10-16T08:06:17;14.90;;;12.63;;
21621;SDS011;10973;46.706;12.340;2022-10-16T08:08:53;12.87;;;11.30;;
21621;SDS011;10973;46.706;12.340;2022-10-16T08:11:22;13.70;;;11.60;;
21621;SDS011;10973;46.706;12.340;2022-10-16T08:13:50;13.97;;;12.00;;
21621;SDS011;10973;46.706;12.340;2022-10-16T08:16:17;14.13;;;11.60;;
21621;SDS011;10973;46.706;12.340;2022-10-16T08:18:44;15.83;;;13.07;;
21621;SDS011;10973;46.706;12.340;2022-10-16T08:21:13;14.80;;;12.93;;
21621;SDS011;10973;46.706;12.340;2022-10-16T08:23:47;16.23;;;13.53;;
21621;SDS011;10973;46.706;12.340;2022-10-16T08:26:23;15.57;;;12.67;;
21621;SDS011;10973;46.706;12.340;2022-10-16T08:28:52;14.60;;;12.87;;
21621;SDS011;10973;46.706;12.340;2022-10-16T08:31:21;12.73;;;11.43;;
21621;SDS011;10973;46.706;12.340;2022-10-16T08:33:49;13.67;;;11.70;;
21621;SDS011;10973;46.706;12.340;2022-10-16T08:36:16;13.10;;;11.60;;
21621;SDS011;10973;46.706;12.340;2022-10-16T08:38:43;14.37;;;11.57;;
21621;SDS011;10973;46.706;12.340;2022-10-16T08:49:53;13.50;;;11.40;;
21621;SDS011;10973;46.706;12.340;2022-10-16T08:52:35;13.57;;;11.80;;
21621;SDS011;10973;46.706;12.340;2022-10-16T08:55:23;12.80;;;10.63;;
21621;SDS011;10973;46.706;12.340;2022-10-16T08:58:17;14.57;;;10.77;;
21621;SDS011;10973;46.706;12.340;2022-10-16T09:00:49;14.07;;;10.90;;
21621;SDS011;10973;46.706;12.340;2022-10-16T09:15:39;12.20;;;9.87;;
21621;SDS011;10973;46.706;12.340;2022-10-16T09:18:04;12.60;;;10.10;;
21621;SDS011;10973;46.706;12.340;2022-10-16T09:23:21;10.90;;;9.70;;
21621;SDS011;10973;46.706;12.340;2022-10-16T09:25:57;11.57;;;10.27;;
21621;SDS011;10973;46.706;12.340;2022-10-16T09:28:26;11.23;;;9.73;;
21621;SDS011;10973;46.706;12.340;2022-10-16T09:30:53;10.37;;;9.27;;
21621;SDS011;10973;46.706;12.340;2022-10-16T09:33:22;10.07;;;9.17;;
21621;SDS011;10973;46.706;12.340;2022-10-16T09:36:00;10.07;;;9.07;;
21621;SDS011;10973;46.706;12.340;2022-10-16T09:38:32;10.67;;;9.60;;
21621;SDS011;10973;46.706;12.340;2022-10-16T09:41:18;10.90;;;9.80;;
21621;SDS011;10973;46.706;12.340;2022-10-16T09:43:55;10.93;;;9.20;;
21621;SDS011;10973;46.706;12.340;2022-10-16T09:46:28;10.23;;;9.10;;
21621;SDS011;10973;46.706;12.340;2022-10-16T09:49:04;10.13;;;9.20;;
21621;SDS011;10973;46.706;12.340;2022-10-16T09:51:44;10.17;;;9.17;;
21621;SDS011;10973;46.706;12.340;2022-10-16T09:54:13;10.67;;;8.73;;
21621;SDS011;10973;46.706;12.340;2022-10-16T09:56:46;10.17;;;8.80;;
21621;SDS011;10973;46.706;12.340;2022-10-16T09:59:15;10.47;;;9.43;;
21621;SDS011;10973;46.706;12.340;2022-10-16T10:01:49;10.03;;;9.10;;
21621;SDS011;10973;46.706;12.340;2022-10-16T10:04:21;10.20;;;9.20;;
21621;SDS011;10973;46.706;12.340;2022-10-16T10:06:54;9.70;;;8.70;;
21621;SDS011;10973;46.706;12.340;2022-10-16T10:09:27;9.63;;;8.73;;
21621;SDS011;10973;46.706;12.340;2022-10-16T10:12:22;8.87;;;7.97;;
21621;SDS011;10973;46.706;12.340;2022-10-16T10:14:56;9.33;;;8.43;;
21621;SDS011;10973;46.706;12.340;2022-10-16T10:17:33;9.50;;;8.60;;
21621;SDS011;10973;46.706;12.340;2022-10-16T10:22:56;8.27;;;7.50;;
21621;SDS011;10973;46.706;12.340;2022-10-16T10:33:52;9.13;;;7.80;;
21621;SDS011;10973;46.706;12.340;2022-10-16T10:36:41;9.20;;;8.30;;
21621;SDS011;10973;46.706;12.340;2022-10-16T10:39:30;7.77;;;7.07;;
21621;SDS011;10973;46.706;12.340;2022-10-16T10:42:19;7.47;;;6.77;;
21621;SDS011;10973;46.706;12.340;2022-10-16T11:07:30;6.63;;;6.13;;
21621;SDS011;10973;46.706;12.340;2022-10-16T11:10:20;10.35;;;6.93;;
21621;SDS011;10973;46.706;12.340;2022-10-16T11:12:55;6.60;;;6.00;;
21621;SDS011;10973;46.706;12.340;2022-10-16T11:15:41;6.60;;;6.10;;
21621;SDS011;10973;46.706;12.340;2022-10-16T11:18:22;6.97;;;6.38;;
21621;SDS011;10973;46.706;12.340;2022-10-16T11:21:31;6.35;;;5.85;;
21621;SDS011;10973;46.706;12.340;2022-10-16T11:24:18;6.60;;;5.95;;
21621;SDS011;10973;46.706;12.340;2022-10-16T11:27:15;6.45;;;5.95;;
21621;SDS011;10973;46.706;12.340;2022-10-16T11:29:50;6.10;;;5.60;;
21621;SDS011;10973;46.706;12.340;2022-10-16T11:32:31;5.97;;;5.47;;
21621;SDS011;10973;46.706;12.340;2022-10-16T11:35:11;6.25;;;5.80;;
21621;SDS011;10973;46.706;12.340;2022-10-16T11:37:49;6.30;;;5.90;;
21621;SDS011;10973;46.706;12.340;2022-10-16T11:40:31;5.90;;;5.50;;
21621;SDS011;10973;46.706;12.340;2022-10-16T11:43:13;6.00;;;5.60;;
21621;SDS011;10973;46.706;12.340;2022-10-16T11:45:52;5.55;;;5.15;;
21621;SDS011;10973;46.706;12.340;2022-10-16T11:51:27;5.10;;;4.80;;
21621;SDS011;10973;46.706;12.340;2022-10-16T11:54:08;5.53;;;5.20;;
21621;SDS011;10973;46.706;12.340;2022-10-16T11:57:02;5.75;;;5.25;;
21621;SDS011;10973;46.706;12.340;2022-10-16T12:08:13;5.65;;;5.15;;
21621;SDS011;10973;46.706;12.340;2022-10-16T12:10:43;4.80;;;4.50;;
21621;SDS011;10973;46.706;12.340;2022-10-16T12:16:04;5.05;;;4.75;;
21621;SDS011;10973;46.706;12.340;2022-10-16T12:18:38;5.40;;;5.00;;
21621;SDS011;10973;46.706;12.340;2022-10-16T12:21:15;5.97;;;5.38;;
21621;SDS011;10973;46.706;12.340;2022-10-16T12:23:50;5.13;;;4.82;;
21621;SDS011;10973;46.706;12.340;2022-10-16T12:26:28;5.50;;;5.10;;
21621;SDS011;10973;46.706;12.340;2022-10-16T12:31:55;5.30;;;4.90;;
21621;SDS011;10973;46.706;12.340;2022-10-16T12:34:38;5.75;;;4.85;;
21621;SDS011;10973;46.706;12.340;2022-10-16T12:37:14;5.82;;;5.40;;
21621;SDS011;10973;46.706;12.340;2022-10-16T12:39:49;5.18;;;4.80;;
21621;SDS011;10973;46.706;12.340;2022-10-16T12:42:21;5.35;;;4.78;;
21621;SDS011;10973;46.706;12.340;2022-10-16T12:44:55;5.30;;;4.90;;
21621;SDS011;10973;46.706;12.340;2022-10-16T12:50:22;6.15;;;4.80;;
21621;SDS011;10973;46.706;12.340;2022-10-16T12:53:03;5.47;;;4.97;;
21621;SDS011;10973;46.706;12.340;2022-10-16T12:59:42;5.65;;;5.25;;
21621;SDS011;10973;46.706;12.340;2022-10-16T13:02:39;5.53;;;5.13;;
21621;SDS011;10973;46.706;12.340;2022-10-16T13:22:51;4.47;;;4.18;;
21621;SDS011;10973;46.706;12.340;2022-10-16T13:25:57;5.20;;;4.70;;
21621;SDS011;10973;46.706;12.340;2022-10-16T13:29:01;5.05;;;4.65;;
21621;SDS011;10973;46.706;12.340;2022-10-16T13:31:29;5.03;;;4.28;;
21621;SDS011;10973;46.706;12.340;2022-10-16T13:33:59;4.28;;;3.97;;
21621;SDS011;10973;46.706;12.340;2022-10-16T13:36:29;5.70;;;4.57;;
21621;SDS011;10973;46.706;12.340;2022-10-16T13:39:19;5.05;;;4.70;;
21621;SDS011;10973;46.706;12.340;2022-10-16T13:42:13;4.75;;;4.40;;
21621;SDS011;10973;46.706;12.340;2022-10-16T13:44:51;5.13;;;4.55;;
21621;SDS011;10973;46.706;12.340;2022-10-16T13:47:21;4.95;;;4.55;;
21621;SDS011;10973;46.706;12.340;2022-10-16T13:50:02;4.57;;;4.28;;
21621;SDS011;10973;46.706;12.340;2022-10-16T13:52:33;4.22;;;4.00;;
21621;SDS011;10973;46.706;12.340;2022-10-16T13:55:00;4.45;;;4.05;;
21621;SDS011;10973;46.706;12.340;2022-10-16T13:57:28;4.22;;;3.83;;
21621;SDS011;10973;46.706;12.340;2022-10-16T13:59:55;3.92;;;3.67;;
21621;SDS011;10973;46.706;12.340;2022-10-16T14:05:04;4.22;;;3.88;;
21621;SDS011;10973;46.706;12.340;2022-10-16T14:07:36;4.22;;;3.83;;
21621;SDS011;10973;46.706;12.340;2022-10-16T14:10:05;4.00;;;3.80;;
21621;SDS011;10973;46.706;12.340;2022-10-16T14:12:55;4.35;;;3.92;;
21621;SDS011;10973;46.706;12.340;2022-10-16T14:15:26;4.13;;;3.78;;
21621;SDS011;10973;46.706;12.340;2022-10-16T14:17:53;4.47;;;4.00;;
21621;SDS011;10973;46.706;12.340;2022-10-16T14:20:24;4.03;;;3.63;;
21621;SDS011;10973;46.706;12.340;2022-10-16T14:23:00;3.70;;;3.33;;
21621;SDS011;10973;46.706;12.340;2022-10-16T14:25:31;3.72;;;3.53;;
21621;SDS011;10973;46.706;12.340;2022-10-16T14:28:14;4.13;;;3.65;;
21621;SDS011;10973;46.706;12.340;2022-10-16T14:30:55;4.25;;;3.92;;
21621;SDS011;10973;46.706;12.340;2022-10-16T14:35:59;4.63;;;4.13;;
21621;SDS011;10973;46.706;12.340;2022-10-16T14:38:48;4.53;;;4.20;;
21621;SDS011;10973;46.706;12.340;2022-10-16T14:41:48;4.40;;;4.10;;
21621;SDS011;10973;46.706;12.340;2022-10-16T14:44:17;10.05;;;4.40;;
21621;SDS011;10973;46.706;12.340;2022-10-16T14:46:49;4.18;;;3.88;;
21621;SDS011;10973;46.706;12.340;2022-10-16T14:49:17;5.10;;;4.60;;
21621;SDS011;10973;46.706;12.340;2022-10-16T14:51:48;5.40;;;4.63;;
21621;SDS011;10973;46.706;12.340;2022-10-16T14:54:16;6.00;;;5.50;;
21621;SDS011;10973;46.706;12.340;2022-10-16T14:56:52;6.22;;;5.65;;
21621;SDS011;10973;46.706;12.340;2022-10-16T14:59:34;6.88;;;6.18;;
21621;SDS011;10973;46.706;12.340;2022-10-16T15:04:44;7.10;;;6.50;;
21621;SDS011;10973;46.706;12.340;2022-10-16T15:07:12;7.70;;;6.90;;
21621;SDS011;10973;46.706;12.340;2022-10-16T15:09:39;7.93;;;7.20;;
21621;SDS011;10973;46.706;12.340;2022-10-16T15:12:11;7.53;;;6.90;;
21621;SDS011;10973;46.706;12.340;2022-10-16T15:14:39;10.07;;;9.07;;
21621;SDS011;10973;46.706;12.340;2022-10-16T15:17:08;11.10;;;10.00;;
21621;SDS011;10973;46.706;12.340;2022-10-16T15:19:37;9.80;;;8.90;;
21621;SDS011;10973;46.706;12.340;2022-10-16T15:22:04;9.57;;;8.60;;
21621;SDS011;10973;46.706;12.340;2022-10-16T15:24:32;9.87;;;8.83;;
21621;SDS011;10973;46.706;12.340;2022-10-16T15:26:59;9.47;;;8.57;;
21621;SDS011;10973;46.706;12.340;2022-10-16T15:29:26;9.15;;;8.27;;
21621;SDS011;10973;46.706;12.340;2022-10-16T15:31:53;9.17;;;8.33;;
21621;SDS011;10973;46.706;12.340;2022-10-16T15:34:20;9.83;;;8.87;;
21621;SDS011;10973;46.706;12.340;2022-10-16T15:36:48;10.57;;;9.50;;
21621;SDS011;10973;46.706;12.340;2022-10-16T15:39:15;11.73;;;9.63;;
21621;SDS011;10973;46.706;12.340;2022-10-16T15:41:46;10.57;;;9.67;;
21621;SDS011;10973;46.706;12.340;2022-10-16T15:44:14;11.30;;;10.20;;
21621;SDS011;10973;46.706;12.340;2022-10-16T15:46:41;10.67;;;9.37;;
21621;SDS011;10973;46.706;12.340;2022-10-16T15:49:09;10.90;;;9.80;;
21621;SDS011;10973;46.706;12.340;2022-10-16T15:51:38;11.37;;;10.37;;
21621;SDS011;10973;46.706;12.340;2022-10-16T15:54:08;11.30;;;10.30;;
21621;SDS011;10973;46.706;12.340;2022-10-16T15:56:35;10.73;;;9.73;;
21621;SDS011;10973;46.706;12.340;2022-10-16T15:59:03;11.50;;;10.40;;
21621;SDS011;10973;46.706;12.340;2022-10-16T16:01:32;11.83;;;10.63;;
21621;SDS011;10973;46.706;12.340;2022-10-16T16:04:00;12.57;;;11.27;;
21621;SDS011;10973;46.706;12.340;2022-10-16T16:06:45;12.80;;;11.50;;
21621;SDS011;10973;46.706;12.340;2022-10-16T16:09:13;12.57;;;11.27;;
21621;SDS011;10973;46.706;12.340;2022-10-16T16:11:42;12.83;;;11.53;;
21621;SDS011;10973;46.706;12.340;2022-10-16T16:14:10;12.87;;;11.27;;
21621;SDS011;10973;46.706;12.340;2022-10-16T16:16:40;12.47;;;11.27;;
21621;SDS011;10973;46.706;12.340;2022-10-16T16:19:09;14.10;;;11.73;;
21621;SDS011;10973;46.706;12.340;2022-10-16T16:21:38;12.23;;;11.03;;
21621;SDS011;10973;46.706;12.340;2022-10-16T16:24:05;13.27;;;11.97;;
21621;SDS011;10973;46.706;12.340;2022-10-16T16:26:33;13.27;;;11.97;;
21621;SDS011;10973;46.706;12.340;2022-10-16T16:29:01;15.50;;;11.93;;
21621;SDS011;10973;46.706;12.340;2022-10-16T16:31:31;13.83;;;12.37;;
21621;SDS011;10973;46.706;12.340;2022-10-16T16:33:59;13.70;;;12.00;;
21621;SDS011;10973;46.706;12.340;2022-10-16T16:36:26;14.27;;;12.83;;
21621;SDS011;10973;46.706;12.340;2022-10-16T16:38:53;13.20;;;11.80;;
21621;SDS011;10973;46.706;12.340;2022-10-16T16:41:23;14.53;;;12.70;;
21621;SDS011;10973;46.706;12.340;2022-10-16T16:43:54;21.47;;;17.63;;
21621;SDS011;10973;46.706;12.340;2022-10-16T16:46:22;16.47;;;14.70;;
21621;SDS011;10973;46.706;12.340;2022-10-16T16:48:49;16.53;;;13.33;;
21621;SDS011;10973;46.706;12.340;2022-10-16T16:51:17;14.53;;;13.07;;